sensor_id;sensor_type;location;lat;lon;timestamp;pressure;altitude;pressure_sealevel;temperature;humidity
30302;BME280;17111;52.130;5.028;2023-05-09T00:01:05;101865.16;;;22.22;51.75
30302;BME280;17111;52.130;5.028;2023-05-09T00:03:32;101855.38;;;22.21;51.94
30302;BME280;17111;52.130;5.028;2023-05-09T00:05:59;101856.22;;;22.21;51.99
30302;BME280;17111;52.130;5.028;2023-05-09T00:08:26;101852.66;;;22.21;51.95
30302;BME280;17111;52.130;5.028;2023-05-09T00:10:53;101849.13;;;22.20;51.89
30302;BME280;17111;52.130;5.028;2023-05-09T00:13:19;101850.97;;;22.20;51.73
30302;BME280;17111;52.130;5.028;2023-05-09T00:15:46;101846.56;;;22.18;51.79
30302;BME280;17111;52.130;5.028;2023-05-09T00:18:13;101847.56;;;22.17;51.87
30302;BME280;17111;52.130;5.028;2023-05-09T00:20:39;101838.44;;;22.18;52.01
30302;BME280;17111;52.130;5.028;2023-05-09T00:23:06;101836.78;;;22.17;51.86
30302;BME280;17111;52.130;5.028;2023-05-09T00:25:33;101836.78;;;22.17;51.91
30302;BME280;17111;52.130;5.028;2023-05-09T00:27:59;101836.94;;;22.16;52.02
30302;BME280;17111;52.130;5.028;2023-05-09T00:30:26;101837.78;;;22.16;51.83
30302;BME280;17111;52.130;5.028;2023-05-09T00:32:52;101831.53;;;22.16;52.25
30302;BME280;17111;52.130;5.028;2023-05-09T00:35:19;101825.28;;;22.15;51.81
30302;BME280;17111;52.130;5.028;2023-05-09T00:37:46;101834.38;;;22.14;51.99
30302;BME280;17111;52.130;5.028;2023-05-09T00:40:12;101823.75;;;22.13;51.62
30302;BME280;17111;52.130;5.028;2023-05-09T00:42:39;101825.56;;;22.12;51.85
30302;BME280;17111;52.130;5.028;2023-05-09T00:45:06;101826.56;;;22.11;52.03
30302;BME280;17111;52.130;5.028;2023-05-09T00:47:33;101813.22;;;22.10;52.07
30302;BME280;17111;52.130;5.028;2023-05-09T00:50:00;101821.47;;;22.08;52.04
30302;BME280;17111;52.130;5.028;2023-05-09T00:52:27;101815.38;;;22.06;52.02
30302;BME280;17111;52.130;5.028;2023-05-09T00:54:55;101816.38;;;22.05;52.05
30302;BME280;17111;52.130;5.028;2023-05-09T00:57:22;101807.63;;;22.03;52.20
30302;BME280;17111;52.130;5.028;2023-05-09T00:59:48;101810.31;;;22.03;52.04
30302;BME280;17111;52.130;5.028;2023-05-09T01:02:18;101798.81;;;22.01;52.08
30302;BME280;17111;52.130;5.028;2023-05-09T01:04:46;101797.97;;;22.01;52.05
30302;BME280;17111;52.130;5.028;2023-05-09T01:07:18;101787.47;;;21.98;51.82
30302;BME280;17111;52.130;5.028;2023-05-09T01:15:11;101783.56;;;21.92;51.94
30302;BME280;17111;52.130;5.028;2023-05-09T01:18:05;101779.31;;;21.89;52.19
30302;BME280;17111;52.130;5.028;2023-05-09T01:20:46;101784.72;;;21.89;51.97
30302;BME280;17111;52.130;5.028;2023-05-09T01:23:58;101771.53;;;21.86;51.90
30302;BME280;17111;52.130;5.028;2023-05-09T01:29:25;101762.75;;;21.84;52.14
30302;BME280;17111;52.130;5.028;2023-05-09T01:31:54;101767.44;;;21.82;52.18
30302;BME280;17111;52.130;5.028;2023-05-09T01:34:25;101763.22;;;21.80;52.40
30302;BME280;17111;52.130;5.028;2023-05-09T01:36:55;101761.50;;;21.79;52.01
30302;BME280;17111;52.130;5.028;2023-05-09T01:39:25;101759.81;;;21.78;52.08
30302;BME280;17111;52.130;5.028;2023-05-09T01:41:54;101757.28;;;21.76;52.01
30302;BME280;17111;52.130;5.028;2023-05-09T01:44:22;101755.59;;;21.75;52.56
30302;BME280;17111;52.130;5.028;2023-05-09T01:46:52;101749.31;;;21.75;51.95
30302;BME280;17111;52.130;5.028;2023-05-09T01:49:20;101738.53;;;21.75;52.19
30302;BME280;17111;52.130;5.028;2023-05-09T01:51:48;101736.84;;;21.74;52.25
30302;BME280;17111;52.130;5.028;2023-05-09T01:54:16;101739.72;;;21.72;52.44
30302;BME280;17111;52.130;5.028;2023-05-09T01:56:44;101728.91;;;21.72;52.25
30302;BME280;17111;52.130;5.028;2023-05-09T01:59:13;101737.16;;;21.71;52.33
30302;BME280;17111;52.130;5.028;2023-05-09T02:01:42;101734.63;;;21.69;52.18
30302;BME280;17111;52.130;5.028;2023-05-09T02:04:12;101730.06;;;21.69;52.39
30302;BME280;17111;52.130;5.028;2023-05-09T02:06:42;101719.44;;;21.68;52.02
30302;BME280;17111;52.130;5.028;2023-05-09T02:09:10;101720.28;;;21.68;52.45
30302;BME280;17111;52.130;5.028;2023-05-09T02:11:38;101722.13;;;21.68;52.22
30302;BME280;17111;52.130;5.028;2023-05-09T02:14:04;101723.16;;;21.67;52.17
30302;BME280;17111;52.130;5.028;2023-05-09T02:16:31;101723.28;;;21.65;52.22
30302;BME280;17111;52.130;5.028;2023-05-09T02:18:58;101722.44;;;21.65;52.33
30302;BME280;17111;52.130;5.028;2023-05-09T02:21:25;101722.44;;;21.65;52.35
30302;BME280;17111;52.130;5.028;2023-05-09T02:23:54;101731.56;;;21.64;51.83
30302;BME280;17111;52.130;5.028;2023-05-09T02:26:21;101719.91;;;21.63;52.27
30302;BME280;17111;52.130;5.028;2023-05-09T02:28:48;101719.91;;;21.63;52.18
30302;BME280;17111;52.130;5.028;2023-05-09T02:31:18;101718.19;;;21.62;52.17
30302;BME280;17111;52.130;5.028;2023-05-09T02:33:45;101716.50;;;21.61;52.34
30302;BME280;17111;52.130;5.028;2023-05-09T02:36:17;101722.06;;;21.60;52.21
30302;BME280;17111;52.130;5.028;2023-05-09T02:38:44;101720.22;;;21.60;52.29
30302;BME280;17111;52.130;5.028;2023-05-09T02:41:13;101710.44;;;21.59;52.27
30302;BME280;17111;52.130;5.028;2023-05-09T02:43:40;101713.97;;;21.60;52.15
30302;BME280;17111;52.130;5.028;2023-05-09T02:46:07;101702.47;;;21.58;52.40
30302;BME280;17111;52.130;5.028;2023-05-09T02:48:34;101703.31;;;21.58;52.21
30302;BME280;17111;52.130;5.028;2023-05-09T02:51:01;101690.00;;;21.57;52.49
30302;BME280;17111;52.130;5.028;2023-05-09T02:53:27;101697.25;;;21.56;52.50
30302;BME280;17111;52.130;5.028;2023-05-09T02:55:54;101693.72;;;21.56;52.25
30302;BME280;17111;52.130;5.028;2023-05-09T02:58:20;101690.19;;;21.55;51.84
30302;BME280;17111;52.130;5.028;2023-05-09T03:00:47;101692.88;;;21.55;52.10
30302;BME280;17111;52.130;5.028;2023-05-09T03:03:14;101688.47;;;21.54;52.37
30302;BME280;17111;52.130;5.028;2023-05-09T03:05:43;101685.75;;;21.54;52.47
30302;BME280;17111;52.130;5.028;2023-05-09T03:08:09;101682.38;;;21.52;52.21
30302;BME280;17111;52.130;5.028;2023-05-09T03:10:36;101675.31;;;21.51;52.32
30302;BME280;17111;52.130;5.028;2023-05-09T03:13:03;101671.72;;;21.51;52.02
30302;BME280;17111;52.130;5.028;2023-05-09T03:15:29;101674.44;;;21.51;51.99
30302;BME280;17111;52.130;5.028;2023-05-09T03:17:56;101663.81;;;21.49;52.27
30302;BME280;17111;52.130;5.028;2023-05-09T03:20:24;101661.13;;;21.49;52.13
30302;BME280;17111;52.130;5.028;2023-05-09T03:22:51;101666.50;;;21.49;52.51
30302;BME280;17111;52.130;5.028;2023-05-09T03:25:17;101662.13;;;21.48;51.98
30302;BME280;17111;52.130;5.028;2023-05-09T03:27:44;101649.66;;;21.47;52.33
30302;BME280;17111;52.130;5.028;2023-05-09T03:30:11;101648.78;;;21.47;52.36
30302;BME280;17111;52.130;5.028;2023-05-09T03:32:38;101646.06;;;21.47;52.58
30302;BME280;17111;52.130;5.028;2023-05-09T03:35:05;101637.13;;;21.46;52.41
30302;BME280;17111;52.130;5.028;2023-05-09T03:37:32;101641.88;;;21.44;52.49
30302;BME280;17111;52.130;5.028;2023-05-09T03:39:58;101633.78;;;21.44;52.45
30302;BME280;17111;52.130;5.028;2023-05-09T03:42:25;101639.16;;;21.44;52.31
30302;BME280;17111;52.130;5.028;2023-05-09T03:44:51;101634.78;;;21.43;51.92
30302;BME280;17111;52.130;5.028;2023-05-09T03:47:18;101632.09;;;21.43;52.33
30302;BME280;17111;52.130;5.028;2023-05-09T03:49:44;101626.69;;;21.43;52.60
30302;BME280;17111;52.130;5.028;2023-05-09T03:52:11;101624.13;;;21.41;52.24
30302;BME280;17111;52.130;5.028;2023-05-09T03:54:38;101623.28;;;21.41;52.33
30302;BME280;17111;52.130;5.028;2023-05-09T03:57:04;101621.59;;;21.40;52.37
30302;BME280;17111;52.130;5.028;2023-05-09T03:59:32;101618.06;;;21.39;52.27
30302;BME280;17111;52.130;5.028;2023-05-09T04:01:58;101619.91;;;21.39;52.46
30302;BME280;17111;52.130;5.028;2023-05-09T04:04:25;101625.31;;;21.39;52.06
30302;BME280;17111;52.130;5.028;2023-05-09T04:06:52;101608.25;;;21.38;52.21
30302;BME280;17111;52.130;5.028;2023-05-09T04:09:19;101604.72;;;21.38;52.47
30302;BME280;17111;52.130;5.028;2023-05-09T04:11:46;101613.81;;;21.37;52.29
30302;BME280;17111;52.130;5.028;2023-05-09T04:14:12;101614.66;;;21.37;52.26
30302;BME280;17111;52.130;5.028;2023-05-09T04:16:39;101613.81;;;21.37;52.17
30302;BME280;17111;52.130;5.028;2023-05-09T04:19:05;101610.28;;;21.36;52.29
30302;BME280;17111;52.130;5.028;2023-05-09T04:21:32;101607.59;;;21.36;52.31
30302;BME280;17111;52.130;5.028;2023-05-09T04:23:59;101609.44;;;21.36;52.41
30302;BME280;17111;52.130;5.028;2023-05-09T04:26:26;101605.06;;;21.35;52.30
30302;BME280;17111;52.130;5.028;2023-05-09T04:28:52;101595.25;;;21.34;52.29
30302;BME280;17111;52.130;5.028;2023-05-09T04:31:19;101602.38;;;21.35;52.33
30302;BME280;17111;52.130;5.028;2023-05-09T04:33:46;101593.41;;;21.34;52.38
30302;BME280;17111;52.130;5.028;2023-05-09T04:36:13;101595.25;;;21.34;52.39
30302;BME280;17111;52.130;5.028;2023-05-09T04:38:39;101587.16;;;21.34;52.43
30302;BME280;17111;52.130;5.028;2023-05-09T04:41:06;101590.69;;;21.34;52.55
30302;BME280;17111;52.130;5.028;2023-05-09T04:43:32;101581.78;;;21.34;52.15
30302;BME280;17111;52.130;5.028;2023-05-09T04:45:59;101587.16;;;21.34;52.38
30302;BME280;17111;52.130;5.028;2023-05-09T04:48:26;101579.06;;;21.34;52.11
30302;BME280;17111;52.130;5.028;2023-05-09T04:50:53;101576.38;;;21.34;52.09
30302;BME280;17111;52.130;5.028;2023-05-09T04:53:19;101571.81;;;21.34;52.33
30302;BME280;17111;52.130;5.028;2023-05-09T04:55:46;101576.38;;;21.34;52.04
30302;BME280;17111;52.130;5.028;2023-05-09T04:58:12;101573.69;;;21.34;52.43
30302;BME280;17111;52.130;5.028;2023-05-09T05:00:39;101564.75;;;21.33;52.10
30302;BME280;17111;52.130;5.028;2023-05-09T05:03:06;101576.38;;;21.34;51.92
30302;BME280;17111;52.130;5.028;2023-05-09T05:05:33;101565.59;;;21.34;52.08
30302;BME280;17111;52.130;5.028;2023-05-09T05:08:03;101561.91;;;21.35;52.21
30302;BME280;17111;52.130;5.028;2023-05-09T05:10:29;101557.50;;;21.34;52.48
30302;BME280;17111;52.130;5.028;2023-05-09T05:12:56;101558.34;;;21.34;52.45
30302;BME280;17111;52.130;5.028;2023-05-09T05:15:22;101559.34;;;21.33;52.15
30302;BME280;17111;52.130;5.028;2023-05-09T05:17:49;101555.66;;;21.34;52.33
30302;BME280;17111;52.130;5.028;2023-05-09T05:20:15;101543.03;;;21.35;51.86
30302;BME280;17111;52.130;5.028;2023-05-09T05:22:42;101548.44;;;21.35;51.97
30302;BME280;17111;52.130;5.028;2023-05-09T05:25:09;101538.47;;;21.35;51.99
30302;BME280;17111;52.130;5.028;2023-05-09T05:27:35;101542.03;;;21.36;51.89
30302;BME280;17111;52.130;5.028;2023-05-09T05:30:03;101533.94;;;21.36;51.80
30302;BME280;17111;52.130;5.028;2023-05-09T05:32:29;101539.31;;;21.36;51.84
30302;BME280;17111;52.130;5.028;2023-05-09T05:34:56;101529.38;;;21.36;51.76
30302;BME280;17111;52.130;5.028;2023-05-09T05:37:22;101532.06;;;21.36;51.92
30302;BME280;17111;52.130;5.028;2023-05-09T05:39:49;101528.53;;;21.36;51.80
30302;BME280;17111;52.130;5.028;2023-05-09T05:42:16;101526.69;;;21.36;51.94
30302;BME280;17111;52.130;5.028;2023-05-09T05:44:43;101516.91;;;21.35;51.96
30302;BME280;17111;52.130;5.028;2023-05-09T05:47:10;101521.47;;;21.35;51.93
30302;BME280;17111;52.130;5.028;2023-05-09T05:49:37;101517.88;;;21.34;51.55
30302;BME280;17111;52.130;5.028;2023-05-09T05:52:04;101517.88;;;21.34;51.80
30302;BME280;17111;52.130;5.028;2023-05-09T05:54:30;101509.97;;;21.33;51.75
30302;BME280;17111;52.130;5.028;2023-05-09T05:56:57;101500.16;;;21.32;51.66
30302;BME280;17111;52.130;5.028;2023-05-09T05:59:23;101507.41;;;21.31;51.81
30302;BME280;17111;52.130;5.028;2023-05-09T06:01:50;101507.41;;;21.31;51.94
30302;BME280;17111;52.130;5.028;2023-05-09T06:04:17;101502.16;;;21.30;51.77
30302;BME280;17111;52.130;5.028;2023-05-09T06:06:44;101503.00;;;21.30;52.17
30302;BME280;17111;52.130;5.028;2023-05-09T06:09:10;101497.63;;;21.30;51.70
30302;BME280;17111;52.130;5.028;2023-05-09T06:11:37;101497.63;;;21.30;51.88
30302;BME280;17111;52.130;5.028;2023-05-09T06:14:04;101495.94;;;21.29;51.73
30302;BME280;17111;52.130;5.028;2023-05-09T06:16:31;101491.38;;;21.30;51.64
30302;BME280;17111;52.130;5.028;2023-05-09T06:18:58;101492.38;;;21.29;52.07
30302;BME280;17111;52.130;5.028;2023-05-09T06:21:24;101490.53;;;21.29;51.97
30302;BME280;17111;52.130;5.028;2023-05-09T06:23:51;101487.00;;;21.29;51.90
30302;BME280;17111;52.130;5.028;2023-05-09T06:26:35;101489.69;;;21.29;51.90
30302;BME280;17111;52.130;5.028;2023-05-09T06:29:02;101488.00;;;21.28;51.92
30302;BME280;17111;52.130;5.028;2023-05-09T06:31:29;101488.00;;;21.28;51.70
30302;BME280;17111;52.130;5.028;2023-05-09T06:33:56;101489.88;;;21.27;52.10
30302;BME280;17111;52.130;5.028;2023-05-09T06:36:22;101488.00;;;21.28;51.82
30302;BME280;17111;52.130;5.028;2023-05-09T06:38:49;101486.31;;;21.27;51.81
30302;BME280;17111;52.130;5.028;2023-05-09T06:41:16;101477.53;;;21.25;52.01
30302;BME280;17111;52.130;5.028;2023-05-09T06:43:42;101476.69;;;21.24;52.12
30302;BME280;17111;52.130;5.028;2023-05-09T06:46:09;101473.16;;;21.24;51.95
30302;BME280;17111;52.130;5.028;2023-05-09T06:48:36;101471.44;;;21.23;51.96
30302;BME280;17111;52.130;5.028;2023-05-09T06:51:02;101468.75;;;21.23;52.09
30302;BME280;17111;52.130;5.028;2023-05-09T06:53:29;101468.75;;;21.23;52.01
30302;BME280;17111;52.130;5.028;2023-05-09T06:55:55;101465.22;;;21.22;52.16
30302;BME280;17111;52.130;5.028;2023-05-09T06:58:22;101473.28;;;21.22;52.18
30302;BME280;17111;52.130;5.028;2023-05-09T07:00:49;101463.53;;;21.21;52.31
30302;BME280;17111;52.130;5.028;2023-05-09T07:03:16;101468.75;;;21.23;51.91
30302;BME280;17111;52.130;5.028;2023-05-09T07:05:43;101461.66;;;21.22;51.67
30302;BME280;17111;52.130;5.028;2023-05-09T07:08:09;101462.50;;;21.22;51.98
30302;BME280;17111;52.130;5.028;2023-05-09T07:10:36;101455.44;;;21.21;51.88
30302;BME280;17111;52.130;5.028;2023-05-09T07:13:04;101458.13;;;21.21;51.94
30302;BME280;17111;52.130;5.028;2023-05-09T07:15:31;101453.44;;;21.23;51.68
30302;BME280;17111;52.130;5.028;2023-05-09T07:18:07;101450.88;;;21.22;52.06
30302;BME280;17111;52.130;5.028;2023-05-09T07:20:34;101446.34;;;21.22;51.84
30302;BME280;17111;52.130;5.028;2023-05-09T07:23:04;101440.09;;;21.22;51.95
30302;BME280;17111;52.130;5.028;2023-05-09T07:25:31;101435.72;;;21.20;51.86
30302;BME280;17111;52.130;5.028;2023-05-09T07:27:58;101432.84;;;21.22;51.86
30302;BME280;17111;52.130;5.028;2023-05-09T07:30:24;101424.94;;;21.20;51.79
30302;BME280;17111;52.130;5.028;2023-05-09T07:32:51;101427.63;;;21.20;51.81
30302;BME280;17111;52.130;5.028;2023-05-09T07:35:19;101438.25;;;21.22;51.84
30302;BME280;17111;52.130;5.028;2023-05-09T07:37:45;101428.47;;;21.21;51.84
30302;BME280;17111;52.130;5.028;2023-05-09T07:40:12;101428.47;;;21.21;51.95
30302;BME280;17111;52.130;5.028;2023-05-09T07:42:40;101424.94;;;21.20;51.95
30302;BME280;17111;52.130;5.028;2023-05-09T07:45:07;101421.41;;;21.20;51.94
30302;BME280;17111;52.130;5.028;2023-05-09T07:47:35;101421.41;;;21.20;51.72
30302;BME280;17111;52.130;5.028;2023-05-09T07:50:02;101415.16;;;21.19;51.89
30302;BME280;17111;52.130;5.028;2023-05-09T07:52:29;101415.16;;;21.19;51.63
30302;BME280;17111;52.130;5.028;2023-05-09T07:54:55;101408.75;;;21.20;51.80
30302;BME280;17111;52.130;5.028;2023-05-09T07:57:22;101410.63;;;21.20;51.75
30302;BME280;17111;52.130;5.028;2023-05-09T07:59:49;101406.06;;;21.20;52.13
30302;BME280;17111;52.130;5.028;2023-05-09T08:02:15;101395.28;;;21.20;52.11
30302;BME280;17111;52.130;5.028;2023-05-09T08:04:42;101391.03;;;21.18;52.04
30302;BME280;17111;52.130;5.028;2023-05-09T08:07:09;101388.22;;;21.19;52.18
30302;BME280;17111;52.130;5.028;2023-05-09T08:09:37;101382.81;;;21.19;51.91
30302;BME280;17111;52.130;5.028;2023-05-09T08:12:04;101381.97;;;21.19;51.74
30302;BME280;17111;52.130;5.028;2023-05-09T08:14:30;101380.13;;;21.19;51.87
30302;BME280;17111;52.130;5.028;2023-05-09T08:16:57;101379.28;;;21.19;52.10
30302;BME280;17111;52.130;5.028;2023-05-09T08:19:24;101373.91;;;21.19;52.15
30302;BME280;17111;52.130;5.028;2023-05-09T08:21:51;101373.03;;;21.18;52.03
30302;BME280;17111;52.130;5.028;2023-05-09T08:24:18;101367.63;;;21.18;52.13
30302;BME280;17111;52.130;5.028;2023-05-09T08:26:45;101364.94;;;21.18;52.06
30302;BME280;17111;52.130;5.028;2023-05-09T08:29:12;101366.78;;;21.18;51.98
30302;BME280;17111;52.130;5.028;2023-05-09T08:31:38;101357.84;;;21.17;51.92
30302;BME280;17111;52.130;5.028;2023-05-09T08:34:05;101360.56;;;21.17;52.15
30302;BME280;17111;52.130;5.028;2023-05-09T08:36:32;101347.91;;;21.18;52.12
30302;BME280;17111;52.130;5.028;2023-05-09T08:38:59;101345.22;;;21.18;52.16
30302;BME280;17111;52.130;5.028;2023-05-09T08:41:26;101347.91;;;21.18;51.84
30302;BME280;17111;52.130;5.028;2023-05-09T08:43:54;101349.78;;;21.17;52.00
30302;BME280;17111;52.130;5.028;2023-05-09T08:46:27;101340.84;;;21.17;52.15
30302;BME280;17111;52.130;5.028;2023-05-09T08:48:56;101343.38;;;21.18;51.71
30302;BME280;17111;52.130;5.028;2023-05-09T08:51:24;101339.81;;;21.18;51.83
30302;BME280;17111;52.130;5.028;2023-05-09T08:53:50;101331.75;;;21.18;51.98
30302;BME280;17111;52.130;5.028;2023-05-09T08:56:17;101337.13;;;21.18;52.02
30302;BME280;17111;52.130;5.028;2023-05-09T08:58:44;101326.34;;;21.18;52.14
30302;BME280;17111;52.130;5.028;2023-05-09T09:01:12;101332.59;;;21.18;52.15
30302;BME280;17111;52.130;5.028;2023-05-09T09:03:40;101325.38;;;21.19;52.10
30302;BME280;17111;52.130;5.028;2023-05-09T09:06:12;101323.50;;;21.19;51.98
30302;BME280;17111;52.130;5.028;2023-05-09T09:08:40;101323.50;;;21.19;52.06
30302;BME280;17111;52.130;5.028;2023-05-09T09:11:11;101312.72;;;21.19;51.85
30302;BME280;17111;52.130;5.028;2023-05-09T09:13:40;101321.66;;;21.20;52.40
30302;BME280;17111;52.130;5.028;2023-05-09T09:16:15;101309.19;;;21.19;52.28
30302;BME280;17111;52.130;5.028;2023-05-09T09:18:43;101312.72;;;21.19;51.95
30302;BME280;17111;52.130;5.028;2023-05-09T09:21:14;101309.00;;;21.20;51.84
30302;BME280;17111;52.130;5.028;2023-05-09T09:23:45;101305.47;;;21.20;52.28
30302;BME280;17111;52.130;5.028;2023-05-09T09:26:15;101303.63;;;21.20;52.14
30302;BME280;17111;52.130;5.028;2023-05-09T09:28:42;101301.94;;;21.19;52.14
30302;BME280;17111;52.130;5.028;2023-05-09T09:31:25;101301.09;;;21.19;52.38
30302;BME280;17111;52.130;5.028;2023-05-09T09:34:02;101298.41;;;21.19;52.47
30302;BME280;17111;52.130;5.028;2023-05-09T09:36:30;101291.16;;;21.19;52.08
30302;BME280;17111;52.130;5.028;2023-05-09T09:38:59;101300.94;;;21.20;51.83
30302;BME280;17111;52.130;5.028;2023-05-09T09:41:33;101296.56;;;21.19;52.08
30302;BME280;17111;52.130;5.028;2023-05-09T09:44:07;101292.16;;;21.18;52.13
30302;BME280;17111;52.130;5.028;2023-05-09T09:46:51;101287.78;;;21.17;52.04
30302;BME280;17111;52.130;5.028;2023-05-09T09:49:20;101288.59;;;21.18;51.92
30302;BME280;17111;52.130;5.028;2023-05-09T09:51:50;101286.94;;;21.17;52.24
30302;BME280;17111;52.130;5.028;2023-05-09T09:54:17;101288.78;;;21.16;52.44
30302;BME280;17111;52.130;5.028;2023-05-09T09:56:46;101290.47;;;21.17;52.23
30302;BME280;17111;52.130;5.028;2023-05-09T09:59:18;101278.00;;;21.16;52.08
30302;BME280;17111;52.130;5.028;2023-05-09T10:02:04;101285.25;;;21.16;52.69
30302;BME280;17111;52.130;5.028;2023-05-09T10:04:37;101286.09;;;21.16;52.32
30302;BME280;17111;52.130;5.028;2023-05-09T10:07:08;101284.41;;;21.15;52.31
30302;BME280;17111;52.130;5.028;2023-05-09T10:09:39;101269.22;;;21.14;52.45
30302;BME280;17111;52.130;5.028;2023-05-09T10:12:07;101275.97;;;21.18;52.39
30302;BME280;17111;52.130;5.028;2023-05-09T10:14:35;101268.06;;;21.17;52.08
30302;BME280;17111;52.130;5.028;2023-05-09T10:17:03;101269.91;;;21.16;52.36
30302;BME280;17111;52.130;5.028;2023-05-09T10:19:31;101272.59;;;21.16;52.11
30302;BME280;17111;52.130;5.028;2023-05-09T10:22:04;101273.63;;;21.15;52.05
30302;BME280;17111;52.130;5.028;2023-05-09T10:24:43;101267.53;;;21.13;52.35
30302;BME280;17111;52.130;5.028;2023-05-09T10:27:11;101269.22;;;21.14;52.11
30302;BME280;17111;52.130;5.028;2023-05-09T10:29:44;101265.69;;;21.14;52.13
30302;BME280;17111;52.130;5.028;2023-05-09T10:32:31;101263.16;;;21.12;52.50
30302;BME280;17111;52.130;5.028;2023-05-09T10:35:04;101254.06;;;21.13;52.25
30302;BME280;17111;52.130;5.028;2023-05-09T10:37:32;101253.22;;;21.13;52.35
30302;BME280;17111;52.130;5.028;2023-05-09T10:40:02;101254.06;;;21.13;52.62
30302;BME280;17111;52.130;5.028;2023-05-09T10:42:30;101253.22;;;21.13;52.69
30302;BME280;17111;52.130;5.028;2023-05-09T10:44:57;101245.97;;;21.13;52.49
30302;BME280;17111;52.130;5.028;2023-05-09T10:47:26;101247.84;;;21.13;52.58
30302;BME280;17111;52.130;5.028;2023-05-09T10:49:54;101239.75;;;21.13;52.60
30302;BME280;17111;52.130;5.028;2023-05-09T10:52:21;101238.06;;;21.12;52.53
30302;BME280;17111;52.130;5.028;2023-05-09T10:55:02;101231.84;;;21.11;52.60
30302;BME280;17111;52.130;5.028;2023-05-09T10:57:30;101224.59;;;21.12;52.91
30302;BME280;17111;52.130;5.028;2023-05-09T10:59:58;101226.44;;;21.11;52.62
30302;BME280;17111;52.130;5.028;2023-05-09T11:02:27;101231.84;;;21.11;52.35
30302;BME280;17111;52.130;5.028;2023-05-09T11:05:16;101225.59;;;21.11;52.65
30302;BME280;17111;52.130;5.028;2023-05-09T11:07:43;101223.75;;;21.11;52.46
30302;BME280;17111;52.130;5.028;2023-05-09T11:10:14;101216.50;;;21.12;52.62
30302;BME280;17111;52.130;5.028;2023-05-09T11:12:56;101213.81;;;21.12;52.92
30302;BME280;17111;52.130;5.028;2023-05-09T11:15:24;101211.78;;;21.14;52.53
30302;BME280;17111;52.130;5.028;2023-05-09T11:18:09;101201.81;;;21.14;52.81
30302;BME280;17111;52.130;5.028;2023-05-09T11:20:42;101209.78;;;21.16;52.47
30302;BME280;17111;52.130;5.028;2023-05-09T11:23:09;101194.44;;;21.16;52.81
30302;BME280;17111;52.130;5.028;2023-05-09T11:25:41;101189.88;;;21.17;52.59
30302;BME280;17111;52.130;5.028;2023-05-09T11:28:25;101189.88;;;21.17;52.35
30302;BME280;17111;52.130;5.028;2023-05-09T11:31:07;101185.34;;;21.17;52.92
30302;BME280;17111;52.130;5.028;2023-05-09T11:33:36;101178.91;;;21.18;52.43
30302;BME280;17111;52.130;5.028;2023-05-09T11:36:41;101181.78;;;21.17;52.69
30302;BME280;17111;52.130;5.028;2023-05-09T11:39:09;101182.50;;;21.19;52.21
30302;BME280;17111;52.130;5.028;2023-05-09T11:41:41;101179.78;;;21.19;52.03
30302;BME280;17111;52.130;5.028;2023-05-09T11:44:26;101178.91;;;21.18;52.50
30302;BME280;17111;52.130;5.028;2023-05-09T11:46:53;101177.94;;;21.19;51.94
30302;BME280;17111;52.130;5.028;2023-05-09T11:49:20;101170.84;;;21.18;52.41
30302;BME280;17111;52.130;5.028;2023-05-09T11:51:47;101169.00;;;21.19;52.57
30302;BME280;17111;52.130;5.028;2023-05-09T11:54:14;101169.00;;;21.19;52.35
30302;BME280;17111;52.130;5.028;2023-05-09T11:56:41;101165.44;;;21.18;52.68
30302;BME280;17111;52.130;5.028;2023-05-09T11:59:08;101156.53;;;21.18;52.66
30302;BME280;17111;52.130;5.028;2023-05-09T12:01:36;101159.22;;;21.18;52.44
30302;BME280;17111;52.130;5.028;2023-05-09T12:04:05;101162.09;;;21.16;52.40
30302;BME280;17111;52.130;5.028;2023-05-09T12:06:32;101156.69;;;21.16;52.17
30302;BME280;17111;52.130;5.028;2023-05-09T12:08:59;101151.31;;;21.16;52.61
30302;BME280;17111;52.130;5.028;2023-05-09T12:11:28;101155.84;;;21.16;52.38
30302;BME280;17111;52.130;5.028;2023-05-09T12:13:57;101149.63;;;21.15;52.63
30302;BME280;17111;52.130;5.028;2023-05-09T12:16:24;101149.63;;;21.15;52.44
30302;BME280;17111;52.130;5.028;2023-05-09T12:18:51;101143.41;;;21.15;52.79
30302;BME280;17111;52.130;5.028;2023-05-09T12:21:18;101143.41;;;21.15;52.48
30302;BME280;17111;52.130;5.028;2023-05-09T12:23:46;101147.06;;;21.14;52.58
30302;BME280;17111;52.130;5.028;2023-05-09T12:26:16;101140.84;;;21.13;52.53
30302;BME280;17111;52.130;5.028;2023-05-09T12:28:43;101145.22;;;21.14;52.79
30302;BME280;17111;52.130;5.028;2023-05-09T12:31:10;101143.53;;;21.13;52.82
30302;BME280;17111;52.130;5.028;2023-05-09T12:33:37;101140.84;;;21.13;52.39
30302;BME280;17111;52.130;5.028;2023-05-09T12:36:07;101140.84;;;21.13;52.72
30302;BME280;17111;52.130;5.028;2023-05-09T12:38:34;101132.75;;;21.13;52.88
30302;BME280;17111;52.130;5.028;2023-05-09T12:41:08;101133.78;;;21.12;52.67
30302;BME280;17111;52.130;5.028;2023-05-09T12:43:55;101132.75;;;21.13;52.58
30302;BME280;17111;52.130;5.028;2023-05-09T12:46:22;101129.22;;;21.13;52.64
30302;BME280;17111;52.130;5.028;2023-05-09T12:48:49;101129.22;;;21.13;52.84
30302;BME280;17111;52.130;5.028;2023-05-09T12:51:19;101124.84;;;21.12;52.87
30302;BME280;17111;52.130;5.028;2023-05-09T12:53:46;101121.31;;;21.11;52.93
30302;BME280;17111;52.130;5.028;2023-05-09T12:56:16;101115.94;;;21.11;52.43
30302;BME280;17111;52.130;5.028;2023-05-09T12:58:48;101119.47;;;21.12;52.79
30302;BME280;17111;52.130;5.028;2023-05-09T13:01:15;101119.47;;;21.12;52.82
30302;BME280;17111;52.130;5.028;2023-05-09T13:03:42;101120.31;;;21.12;52.54
30302;BME280;17111;52.130;5.028;2023-05-09T13:06:12;101116.78;;;21.12;52.41